Cowden, Illinois
Current Conditions -  °F | °C
As of 5:55 AM on Thursday 27 Nov 2014 (Local Time) from K1H2 Reporting Station
Scattered Clouds Scattered Clouds  
Wind Chill: -11°   Ceiling: Unl
Heat Index: -6°   Visibility: 7mi
Dew Point: -9°   Wind: 8mph
Humidity: 80%   Direction: 290°WNW
Pressure: 30.36"   Gusts: NA
Location:  39.25°N, 88.86°W
Report Text: K1H2 271155Z AUTO 29007KT 7SM SCT085 M06/M09 A3036 RMK AO2 70005 T10581088 11010 21058
Loading
Personal Weather Stations






























Interactive Weather Map New forecast layout! Learn more

10-Day Weather Forecast

Advertisements
Track Severe Weather on mobile